sensor_id;sensor_type;location;lat;lon;timestamp;P1;durP1;ratioP1;P2;durP2;ratioP2
43118;SDS011;28729;49.838;8.650;2023-02-15T00:03:22;28.38;;;12.15;;
43118;SDS011;28729;49.838;8.650;2023-02-15T00:07:24;26.90;;;11.50;;
43118;SDS011;28729;49.838;8.650;2023-02-15T00:11:25;26.05;;;10.70;;
43118;SDS011;28729;49.838;8.650;2023-02-15T00:15:51;29.60;;;11.35;;
43118;SDS011;28729;49.838;8.650;2023-02-15T00:19:53;29.57;;;12.87;;
43118;SDS011;28729;49.838;8.650;2023-02-15T00:23:55;32.70;;;13.07;;
43118;SDS011;28729;49.838;8.650;2023-02-15T00:36:03;28.25;;;10.85;;
43118;SDS011;28729;49.838;8.650;2023-02-15T00:40:05;24.90;;;11.38;;
43118;SDS011;28729;49.838;8.650;2023-02-15T00:44:08;27.02;;;11.48;;
43118;SDS011;28729;49.838;8.650;2023-02-15T00:48:09;25.88;;;11.25;;
43118;SDS011;28729;49.838;8.650;2023-02-15T00:52:11;23.80;;;11.20;;
43118;SDS011;28729;49.838;8.650;2023-02-15T00:56:12;27.13;;;11.65;;
43118;SDS011;28729;49.838;8.650;2023-02-15T01:00:15;20.83;;;8.73;;
43118;SDS011;28729;49.838;8.650;2023-02-15T01:04:16;24.50;;;10.95;;
43118;SDS011;28729;49.838;8.650;2023-02-15T01:08:18;27.65;;;11.48;;
43118;SDS011;28729;49.838;8.650;2023-02-15T01:12:20;25.50;;;11.82;;
43118;SDS011;28729;49.838;8.650;2023-02-15T01:16:22;27.52;;;12.25;;
43118;SDS011;28729;49.838;8.650;2023-02-15T01:20:28;27.75;;;12.93;;
43118;SDS011;28729;49.838;8.650;2023-02-15T01:24:30;26.80;;;13.20;;
43118;SDS011;28729;49.838;8.650;2023-02-15T01:28:32;28.88;;;11.70;;
43118;SDS011;28729;49.838;8.650;2023-02-15T01:32:35;29.42;;;11.48;;
43118;SDS011;28729;49.838;8.650;2023-02-15T01:36:36;23.37;;;11.17;;
43118;SDS011;28729;49.838;8.650;2023-02-15T01:40:38;27.40;;;12.73;;
43118;SDS011;28729;49.838;8.650;2023-02-15T01:44:45;31.13;;;12.57;;
43118;SDS011;28729;49.838;8.650;2023-02-15T01:48:54;34.00;;;13.55;;
43118;SDS011;28729;49.838;8.650;2023-02-15T01:57:22;27.50;;;12.27;;
43118;SDS011;28729;49.838;8.650;2023-02-15T02:01:27;31.02;;;13.05;;
43118;SDS011;28729;49.838;8.650;2023-02-15T02:05:31;32.20;;;12.77;;
43118;SDS011;28729;49.838;8.650;2023-02-15T02:09:34;33.88;;;12.52;;
43118;SDS011;28729;49.838;8.650;2023-02-15T02:13:35;26.08;;;10.38;;
43118;SDS011;28729;49.838;8.650;2023-02-15T02:17:53;29.42;;;11.63;;
43118;SDS011;28729;49.838;8.650;2023-02-15T02:26:14;33.35;;;11.70;;
43118;SDS011;28729;49.838;8.650;2023-02-15T02:30:31;27.35;;;12.75;;
43118;SDS011;28729;49.838;8.650;2023-02-15T02:35:16;37.28;;;12.27;;
43118;SDS011;28729;49.838;8.650;2023-02-15T02:43:45;29.50;;;11.55;;
43118;SDS011;28729;49.838;8.650;2023-02-15T02:47:50;28.85;;;10.70;;
43118;SDS011;28729;49.838;8.650;2023-02-15T02:52:07;37.85;;;11.40;;
43118;SDS011;28729;49.838;8.650;2023-02-15T02:57:04;26.92;;;11.18;;
43118;SDS011;28729;49.838;8.650;2023-02-15T03:05:19;30.30;;;11.60;;
43118;SDS011;28729;49.838;8.650;2023-02-15T03:09:28;47.30;;;13.30;;
43118;SDS011;28729;49.838;8.650;2023-02-15T03:13:43;88.68;;;16.45;;
43118;SDS011;28729;49.838;8.650;2023-02-15T03:17:51;33.45;;;11.02;;
43118;SDS011;28729;49.838;8.650;2023-02-15T03:22:06;42.97;;;12.57;;
43118;SDS011;28729;49.838;8.650;2023-02-15T03:26:21;29.33;;;10.95;;
43118;SDS011;28729;49.838;8.650;2023-02-15T03:30:25;64.13;;;14.05;;
43118;SDS011;28729;49.838;8.650;2023-02-15T03:34:31;47.38;;;13.80;;
43118;SDS011;28729;49.838;8.650;2023-02-15T03:38:36;31.60;;;13.32;;
43118;SDS011;28729;49.838;8.650;2023-02-15T03:42:49;50.53;;;14.38;;
43118;SDS011;28729;49.838;8.650;2023-02-15T03:47:06;36.58;;;13.82;;
43118;SDS011;28729;49.838;8.650;2023-02-15T03:51:16;49.80;;;14.32;;
43118;SDS011;28729;49.838;8.650;2023-02-15T03:55:35;81.30;;;15.13;;
43118;SDS011;28729;49.838;8.650;2023-02-15T03:59:37;75.00;;;14.93;;
43118;SDS011;28729;49.838;8.650;2023-02-15T04:04:00;35.92;;;12.65;;
43118;SDS011;28729;49.838;8.650;2023-02-15T04:08:07;37.92;;;12.13;;
43118;SDS011;28729;49.838;8.650;2023-02-15T04:12:09;34.15;;;13.25;;
43118;SDS011;28729;49.838;8.650;2023-02-15T04:16:11;30.70;;;12.25;;
43118;SDS011;28729;49.838;8.650;2023-02-15T04:20:13;26.33;;;11.70;;
43118;SDS011;28729;49.838;8.650;2023-02-15T04:24:33;25.75;;;11.35;;
43118;SDS011;28729;49.838;8.650;2023-02-15T04:28:54;63.08;;;15.00;;
43118;SDS011;28729;49.838;8.650;2023-02-15T04:32:55;45.15;;;13.43;;
43118;SDS011;28729;49.838;8.650;2023-02-15T04:36:58;33.67;;;12.60;;
43118;SDS011;28729;49.838;8.650;2023-02-15T04:41:00;33.47;;;13.27;;
43118;SDS011;28729;49.838;8.650;2023-02-15T04:45:01;36.75;;;11.68;;
43118;SDS011;28729;49.838;8.650;2023-02-15T04:49:04;39.22;;;12.23;;
43118;SDS011;28729;49.838;8.650;2023-02-15T04:53:06;45.30;;;13.00;;
43118;SDS011;28729;49.838;8.650;2023-02-15T04:57:07;36.20;;;12.38;;
43118;SDS011;28729;49.838;8.650;2023-02-15T05:01:09;30.27;;;11.67;;
43118;SDS011;28729;49.838;8.650;2023-02-15T05:05:11;27.60;;;10.60;;
43118;SDS011;28729;49.838;8.650;2023-02-15T05:09:14;35.92;;;12.98;;
43118;SDS011;28729;49.838;8.650;2023-02-15T05:13:16;38.60;;;11.80;;
43118;SDS011;28729;49.838;8.650;2023-02-15T05:17:17;38.75;;;12.27;;
43118;SDS011;28729;49.838;8.650;2023-02-15T05:21:19;43.67;;;13.45;;
43118;SDS011;28729;49.838;8.650;2023-02-15T05:25:21;39.83;;;12.95;;
43118;SDS011;28729;49.838;8.650;2023-02-15T05:29:48;50.50;;;13.65;;
43118;SDS011;28729;49.838;8.650;2023-02-15T05:33:50;47.85;;;13.35;;
43118;SDS011;28729;49.838;8.650;2023-02-15T05:37:52;41.80;;;14.65;;
43118;SDS011;28729;49.838;8.650;2023-02-15T05:41:54;38.03;;;13.38;;
43118;SDS011;28729;49.838;8.650;2023-02-15T05:45:59;32.72;;;12.38;;
43118;SDS011;28729;49.838;8.650;2023-02-15T05:50:02;30.17;;;11.85;;
43118;SDS011;28729;49.838;8.650;2023-02-15T05:54:04;40.00;;;12.23;;
43118;SDS011;28729;49.838;8.650;2023-02-15T05:58:06;28.63;;;11.40;;
43118;SDS011;28729;49.838;8.650;2023-02-15T06:02:08;28.33;;;11.13;;
43118;SDS011;28729;49.838;8.650;2023-02-15T06:06:10;29.87;;;11.37;;
43118;SDS011;28729;49.838;8.650;2023-02-15T06:10:12;30.53;;;10.63;;
43118;SDS011;28729;49.838;8.650;2023-02-15T06:14:14;24.15;;;11.10;;
43118;SDS011;28729;49.838;8.650;2023-02-15T06:18:16;24.40;;;10.68;;
43118;SDS011;28729;49.838;8.650;2023-02-15T06:22:17;25.65;;;10.23;;
43118;SDS011;28729;49.838;8.650;2023-02-15T06:26:19;37.83;;;10.98;;
43118;SDS011;28729;49.838;8.650;2023-02-15T06:30:21;26.05;;;10.55;;
43118;SDS011;28729;49.838;8.650;2023-02-15T06:34:23;28.05;;;11.23;;
43118;SDS011;28729;49.838;8.650;2023-02-15T06:38:25;27.70;;;11.07;;
43118;SDS011;28729;49.838;8.650;2023-02-15T06:42:27;29.17;;;11.90;;
43118;SDS011;28729;49.838;8.650;2023-02-15T06:46:29;20.60;;;8.15;;
43118;SDS011;28729;49.838;8.650;2023-02-15T06:50:31;28.77;;;11.93;;
43118;SDS011;28729;49.838;8.650;2023-02-15T06:54:33;22.80;;;8.48;;
43118;SDS011;28729;49.838;8.650;2023-02-15T06:58:39;29.30;;;11.07;;
43118;SDS011;28729;49.838;8.650;2023-02-15T07:02:41;35.92;;;11.85;;
43118;SDS011;28729;49.838;8.650;2023-02-15T07:06:43;27.77;;;11.63;;
43118;SDS011;28729;49.838;8.650;2023-02-15T07:10:48;26.55;;;11.02;;
43118;SDS011;28729;49.838;8.650;2023-02-15T07:14:51;34.03;;;12.30;;
43118;SDS011;28729;49.838;8.650;2023-02-15T07:18:53;33.33;;;12.68;;
43118;SDS011;28729;49.838;8.650;2023-02-15T07:22:55;30.88;;;12.02;;
43118;SDS011;28729;49.838;8.650;2023-02-15T07:26:57;29.88;;;12.13;;
43118;SDS011;28729;49.838;8.650;2023-02-15T07:31:02;35.00;;;12.38;;
43118;SDS011;28729;49.838;8.650;2023-02-15T07:35:06;37.30;;;13.05;;
43118;SDS011;28729;49.838;8.650;2023-02-15T07:39:09;29.35;;;12.82;;
43118;SDS011;28729;49.838;8.650;2023-02-15T07:43:12;35.13;;;13.25;;
43118;SDS011;28729;49.838;8.650;2023-02-15T07:47:15;40.10;;;14.18;;
43118;SDS011;28729;49.838;8.650;2023-02-15T07:51:16;51.20;;;14.77;;
43118;SDS011;28729;49.838;8.650;2023-02-15T07:55:18;43.58;;;15.18;;
43118;SDS011;28729;49.838;8.650;2023-02-15T07:59:23;45.80;;;14.13;;
43118;SDS011;28729;49.838;8.650;2023-02-15T08:03:27;38.20;;;13.40;;
43118;SDS011;28729;49.838;8.650;2023-02-15T08:07:31;37.55;;;12.18;;
43118;SDS011;28729;49.838;8.650;2023-02-15T08:11:34;45.23;;;13.93;;
43118;SDS011;28729;49.838;8.650;2023-02-15T08:15:48;42.47;;;13.38;;
43118;SDS011;28729;49.838;8.650;2023-02-15T08:19:51;41.13;;;13.80;;
43118;SDS011;28729;49.838;8.650;2023-02-15T08:23:53;37.30;;;13.45;;
43118;SDS011;28729;49.838;8.650;2023-02-15T08:27:55;36.25;;;12.52;;
43118;SDS011;28729;49.838;8.650;2023-02-15T08:32:04;36.50;;;13.10;;
43118;SDS011;28729;49.838;8.650;2023-02-15T08:36:15;40.00;;;12.65;;
43118;SDS011;28729;49.838;8.650;2023-02-15T08:40:20;44.70;;;13.13;;
43118;SDS011;28729;49.838;8.650;2023-02-15T08:44:22;35.70;;;12.77;;
43118;SDS011;28729;49.838;8.650;2023-02-15T08:48:24;38.50;;;14.48;;
43118;SDS011;28729;49.838;8.650;2023-02-15T08:52:26;46.37;;;14.00;;
43118;SDS011;28729;49.838;8.650;2023-02-15T08:56:29;36.28;;;13.25;;
43118;SDS011;28729;49.838;8.650;2023-02-15T09:00:34;37.72;;;14.23;;
43118;SDS011;28729;49.838;8.650;2023-02-15T09:04:38;35.67;;;13.85;;
43118;SDS011;28729;49.838;8.650;2023-02-15T09:08:40;33.40;;;13.07;;
43118;SDS011;28729;49.838;8.650;2023-02-15T09:12:42;38.03;;;13.87;;
43118;SDS011;28729;49.838;8.650;2023-02-15T09:16:44;37.00;;;13.07;;
43118;SDS011;28729;49.838;8.650;2023-02-15T09:20:47;44.30;;;13.43;;
43118;SDS011;28729;49.838;8.650;2023-02-15T09:29:15;35.17;;;12.75;;
43118;SDS011;28729;49.838;8.650;2023-02-15T09:33:17;37.80;;;14.35;;
43118;SDS011;28729;49.838;8.650;2023-02-15T09:37:21;33.65;;;13.60;;
43118;SDS011;28729;49.838;8.650;2023-02-15T09:46:01;44.95;;;14.85;;
43118;SDS011;28729;49.838;8.650;2023-02-15T09:50:30;40.67;;;15.00;;
43118;SDS011;28729;49.838;8.650;2023-02-15T10:03:05;33.15;;;13.45;;
43118;SDS011;28729;49.838;8.650;2023-02-15T10:07:40;37.17;;;14.43;;
43118;SDS011;28729;49.838;8.650;2023-02-15T10:11:58;29.80;;;12.60;;
43118;SDS011;28729;49.838;8.650;2023-02-15T10:16:25;33.80;;;13.43;;
43118;SDS011;28729;49.838;8.650;2023-02-15T10:20:36;34.67;;;13.18;;
43118;SDS011;28729;49.838;8.650;2023-02-15T10:24:45;34.70;;;13.90;;
43118;SDS011;28729;49.838;8.650;2023-02-15T10:30:02;38.75;;;15.48;;
43118;SDS011;28729;49.838;8.650;2023-02-15T10:33:38;30.80;;;12.93;;
43118;SDS011;28729;49.838;8.650;2023-02-15T10:42:16;29.40;;;12.43;;
43118;SDS011;28729;49.838;8.650;2023-02-15T10:46:45;29.55;;;12.75;;
43118;SDS011;28729;49.838;8.650;2023-02-15T10:55:08;33.88;;;14.85;;
43118;SDS011;28729;49.838;8.650;2023-02-15T10:59:29;38.95;;;15.80;;
43118;SDS011;28729;49.838;8.650;2023-02-15T11:08:08;42.72;;;16.08;;
43118;SDS011;28729;49.838;8.650;2023-02-15T11:16:44;42.58;;;16.42;;
43118;SDS011;28729;49.838;8.650;2023-02-15T11:20:59;39.80;;;15.57;;
43118;SDS011;28729;49.838;8.650;2023-02-15T11:25:14;42.22;;;15.30;;
43118;SDS011;28729;49.838;8.650;2023-02-15T11:29:22;40.50;;;15.35;;
43118;SDS011;28729;49.838;8.650;2023-02-15T11:33:30;42.90;;;17.48;;
43118;SDS011;28729;49.838;8.650;2023-02-15T11:42:23;36.17;;;14.45;;
43118;SDS011;28729;49.838;8.650;2023-02-15T11:46:26;42.33;;;16.55;;
43118;SDS011;28729;49.838;8.650;2023-02-15T11:50:29;45.15;;;17.63;;
43118;SDS011;28729;49.838;8.650;2023-02-15T11:54:35;45.60;;;19.33;;
43118;SDS011;28729;49.838;8.650;2023-02-15T11:58:45;48.65;;;19.40;;
43118;SDS011;28729;49.838;8.650;2023-02-15T12:02:52;43.63;;;16.45;;
43118;SDS011;28729;49.838;8.650;2023-02-15T12:07:01;42.90;;;18.40;;
43118;SDS011;28729;49.838;8.650;2023-02-15T12:11:15;48.92;;;17.63;;
43118;SDS011;28729;49.838;8.650;2023-02-15T12:15:29;48.42;;;19.17;;
43118;SDS011;28729;49.838;8.650;2023-02-15T12:19:39;44.35;;;17.67;;
43118;SDS011;28729;49.838;8.650;2023-02-15T12:23:45;45.42;;;19.23;;
43118;SDS011;28729;49.838;8.650;2023-02-15T12:27:49;44.60;;;18.15;;
43118;SDS011;28729;49.838;8.650;2023-02-15T12:31:51;40.43;;;18.53;;
43118;SDS011;28729;49.838;8.650;2023-02-15T12:35:55;45.88;;;17.70;;
43118;SDS011;28729;49.838;8.650;2023-02-15T12:44:35;44.40;;;17.52;;
43118;SDS011;28729;49.838;8.650;2023-02-15T12:48:38;40.50;;;16.98;;
43118;SDS011;28729;49.838;8.650;2023-02-15T12:52:41;40.20;;;17.08;;
43118;SDS011;28729;49.838;8.650;2023-02-15T12:56:43;45.80;;;17.70;;
43118;SDS011;28729;49.838;8.650;2023-02-15T13:00:45;43.25;;;18.42;;
43118;SDS011;28729;49.838;8.650;2023-02-15T13:04:48;37.40;;;16.55;;
43118;SDS011;28729;49.838;8.650;2023-02-15T13:08:52;34.90;;;16.23;;
43118;SDS011;28729;49.838;8.650;2023-02-15T13:12:56;34.92;;;15.63;;
43118;SDS011;28729;49.838;8.650;2023-02-15T13:17:00;40.70;;;17.80;;
43118;SDS011;28729;49.838;8.650;2023-02-15T13:21:11;38.38;;;17.38;;
43118;SDS011;28729;49.838;8.650;2023-02-15T13:25:19;44.15;;;18.40;;
43118;SDS011;28729;49.838;8.650;2023-02-15T13:29:27;37.95;;;17.58;;
43118;SDS011;28729;49.838;8.650;2023-02-15T13:33:32;38.20;;;16.90;;
43118;SDS011;28729;49.838;8.650;2023-02-15T13:37:42;42.88;;;17.02;;
43118;SDS011;28729;49.838;8.650;2023-02-15T13:55:18;42.28;;;17.77;;
43118;SDS011;28729;49.838;8.650;2023-02-15T13:59:16;39.45;;;16.67;;
43118;SDS011;28729;49.838;8.650;2023-02-15T14:08:04;38.47;;;18.58;;
43118;SDS011;28729;49.838;8.650;2023-02-15T14:17:00;41.47;;;19.02;;
43118;SDS011;28729;49.838;8.650;2023-02-15T14:25:17;38.72;;;18.73;;
43118;SDS011;28729;49.838;8.650;2023-02-15T14:29:41;38.92;;;20.25;;
43118;SDS011;28729;49.838;8.650;2023-02-15T14:33:53;45.22;;;18.85;;
43118;SDS011;28729;49.838;8.650;2023-02-15T14:42:15;37.30;;;17.70;;
43118;SDS011;28729;49.838;8.650;2023-02-15T14:51:00;40.97;;;18.98;;
43118;SDS011;28729;49.838;8.650;2023-02-15T14:55:03;40.45;;;19.00;;
43118;SDS011;28729;49.838;8.650;2023-02-15T14:59:12;40.25;;;17.85;;
43118;SDS011;28729;49.838;8.650;2023-02-15T15:03:20;44.45;;;19.35;;
43118;SDS011;28729;49.838;8.650;2023-02-15T15:07:35;41.05;;;17.95;;
43118;SDS011;28729;49.838;8.650;2023-02-15T15:11:44;36.17;;;18.48;;
43118;SDS011;28729;49.838;8.650;2023-02-15T15:15:51;38.83;;;17.55;;
43118;SDS011;28729;49.838;8.650;2023-02-15T15:23:55;41.15;;;18.63;;
43118;SDS011;28729;49.838;8.650;2023-02-15T15:27:57;42.97;;;18.75;;
43118;SDS011;28729;49.838;8.650;2023-02-15T15:31:59;44.13;;;19.40;;
43118;SDS011;28729;49.838;8.650;2023-02-15T15:40:42;44.35;;;18.38;;
43118;SDS011;28729;49.838;8.650;2023-02-15T15:49:16;41.60;;;19.23;;
43118;SDS011;28729;49.838;8.650;2023-02-15T15:53:21;41.30;;;17.92;;
43118;SDS011;28729;49.838;8.650;2023-02-15T15:57:31;43.85;;;17.83;;
43118;SDS011;28729;49.838;8.650;2023-02-15T16:01:41;43.90;;;18.30;;
43118;SDS011;28729;49.838;8.650;2023-02-15T16:05:45;46.53;;;19.75;;
43118;SDS011;28729;49.838;8.650;2023-02-15T16:10:00;46.75;;;19.77;;
43118;SDS011;28729;49.838;8.650;2023-02-15T16:14:02;45.60;;;20.35;;
43118;SDS011;28729;49.838;8.650;2023-02-15T16:18:03;47.88;;;19.45;;
43118;SDS011;28729;49.838;8.650;2023-02-15T16:22:13;47.87;;;19.97;;
43118;SDS011;28729;49.838;8.650;2023-02-15T16:30:45;51.00;;;20.88;;
43118;SDS011;28729;49.838;8.650;2023-02-15T16:34:56;53.80;;;20.52;;
43118;SDS011;28729;49.838;8.650;2023-02-15T16:39:08;60.97;;;20.38;;
43118;SDS011;28729;49.838;8.650;2023-02-15T16:43:19;48.90;;;20.13;;
43118;SDS011;28729;49.838;8.650;2023-02-15T16:47:26;46.08;;;21.58;;
43118;SDS011;28729;49.838;8.650;2023-02-15T16:51:31;52.85;;;20.60;;
43118;SDS011;28729;49.838;8.650;2023-02-15T16:55:38;56.97;;;22.52;;
43118;SDS011;28729;49.838;8.650;2023-02-15T16:59:44;54.90;;;22.15;;
43118;SDS011;28729;49.838;8.650;2023-02-15T17:03:52;55.65;;;22.25;;
43118;SDS011;28729;49.838;8.650;2023-02-15T17:08:19;58.25;;;22.77;;
43118;SDS011;28729;49.838;8.650;2023-02-15T17:16:49;55.80;;;20.98;;
43118;SDS011;28729;49.838;8.650;2023-02-15T17:20:56;58.00;;;21.45;;
43118;SDS011;28729;49.838;8.650;2023-02-15T17:25:00;58.28;;;21.55;;
43118;SDS011;28729;49.838;8.650;2023-02-15T17:29:15;49.83;;;20.98;;
43118;SDS011;28729;49.838;8.650;2023-02-15T17:33:22;60.28;;;22.38;;
43118;SDS011;28729;49.838;8.650;2023-02-15T17:37:32;55.97;;;22.17;;
43118;SDS011;28729;49.838;8.650;2023-02-15T17:41:46;53.28;;;22.98;;
43118;SDS011;28729;49.838;8.650;2023-02-15T17:45:49;56.30;;;22.70;;
43118;SDS011;28729;49.838;8.650;2023-02-15T17:49:51;57.58;;;24.25;;
43118;SDS011;28729;49.838;8.650;2023-02-15T17:53:53;45.95;;;18.58;;
43118;SDS011;28729;49.838;8.650;2023-02-15T17:58:15;62.33;;;24.38;;
43118;SDS011;28729;49.838;8.650;2023-02-15T18:02:19;56.05;;;23.15;;
43118;SDS011;28729;49.838;8.650;2023-02-15T18:06:41;53.58;;;23.70;;
43118;SDS011;28729;49.838;8.650;2023-02-15T18:11:02;54.10;;;21.52;;
43118;SDS011;28729;49.838;8.650;2023-02-15T18:15:23;55.67;;;22.25;;
43118;SDS011;28729;49.838;8.650;2023-02-15T18:19:25;59.80;;;23.17;;
43118;SDS011;28729;49.838;8.650;2023-02-15T18:27:29;47.60;;;20.27;;
43118;SDS011;28729;49.838;8.650;2023-02-15T18:31:31;66.70;;;24.77;;
43118;SDS011;28729;49.838;8.650;2023-02-15T18:35:32;60.67;;;26.73;;
43118;SDS011;28729;49.838;8.650;2023-02-15T18:39:37;57.13;;;24.80;;
43118;SDS011;28729;49.838;8.650;2023-02-15T18:43:41;55.90;;;24.95;;
43118;SDS011;28729;49.838;8.650;2023-02-15T18:47:44;60.90;;;25.50;;
43118;SDS011;28729;49.838;8.650;2023-02-15T18:51:46;67.13;;;25.02;;
43118;SDS011;28729;49.838;8.650;2023-02-15T18:55:48;57.28;;;23.40;;
43118;SDS011;28729;49.838;8.650;2023-02-15T18:59:51;58.95;;;24.85;;
43118;SDS011;28729;49.838;8.650;2023-02-15T19:03:53;64.72;;;24.60;;
43118;SDS011;28729;49.838;8.650;2023-02-15T19:07:55;66.93;;;23.73;;
43118;SDS011;28729;49.838;8.650;2023-02-15T19:11:58;63.78;;;24.08;;
43118;SDS011;28729;49.838;8.650;2023-02-15T19:16:00;63.17;;;23.00;;
43118;SDS011;28729;49.838;8.650;2023-02-15T19:20:03;61.85;;;24.00;;
43118;SDS011;28729;49.838;8.650;2023-02-15T19:24:06;47.43;;;18.83;;
43118;SDS011;28729;49.838;8.650;2023-02-15T19:28:33;56.50;;;23.38;;
43118;SDS011;28729;49.838;8.650;2023-02-15T19:32:36;56.63;;;21.60;;
43118;SDS011;28729;49.838;8.650;2023-02-15T19:36:39;64.18;;;26.83;;
43118;SDS011;28729;49.838;8.650;2023-02-15T19:40:41;63.93;;;25.10;;
43118;SDS011;28729;49.838;8.650;2023-02-15T19:44:42;60.80;;;25.50;;
43118;SDS011;28729;49.838;8.650;2023-02-15T19:48:44;67.28;;;27.45;;
43118;SDS011;28729;49.838;8.650;2023-02-15T19:52:47;75.05;;;29.58;;
43118;SDS011;28729;49.838;8.650;2023-02-15T19:56:49;93.53;;;30.80;;
43118;SDS011;28729;49.838;8.650;2023-02-15T20:00:50;91.00;;;30.45;;
43118;SDS011;28729;49.838;8.650;2023-02-15T20:04:52;78.47;;;29.60;;
43118;SDS011;28729;49.838;8.650;2023-02-15T20:08:54;80.65;;;29.35;;
43118;SDS011;28729;49.838;8.650;2023-02-15T20:12:56;74.65;;;30.17;;
43118;SDS011;28729;49.838;8.650;2023-02-15T20:17:01;75.88;;;29.50;;
43118;SDS011;28729;49.838;8.650;2023-02-15T20:21:02;77.38;;;27.92;;
43118;SDS011;28729;49.838;8.650;2023-02-15T20:29:13;65.88;;;24.98;;
43118;SDS011;28729;49.838;8.650;2023-02-15T20:33:17;75.97;;;28.98;;
43118;SDS011;28729;49.838;8.650;2023-02-15T20:41:23;76.47;;;26.20;;
43118;SDS011;28729;49.838;8.650;2023-02-15T20:45:37;70.47;;;27.20;;
43118;SDS011;28729;49.838;8.650;2023-02-15T20:49:39;83.95;;;30.98;;
43118;SDS011;28729;49.838;8.650;2023-02-15T20:53:41;72.63;;;27.55;;
43118;SDS011;28729;49.838;8.650;2023-02-15T20:57:43;64.85;;;27.23;;
43118;SDS011;28729;49.838;8.650;2023-02-15T21:05:47;64.45;;;24.98;;
43118;SDS011;28729;49.838;8.650;2023-02-15T21:09:50;74.60;;;29.70;;
43118;SDS011;28729;49.838;8.650;2023-02-15T21:17:54;79.47;;;27.23;;
43118;SDS011;28729;49.838;8.650;2023-02-15T21:21:58;69.95;;;27.95;;
43118;SDS011;28729;49.838;8.650;2023-02-15T21:26:01;82.63;;;30.65;;
43118;SDS011;28729;49.838;8.650;2023-02-15T21:30:05;85.43;;;30.17;;
43118;SDS011;28729;49.838;8.650;2023-02-15T21:34:18;81.35;;;29.35;;
43118;SDS011;28729;49.838;8.650;2023-02-15T21:38:21;76.10;;;28.25;;
43118;SDS011;28729;49.838;8.650;2023-02-15T21:42:26;81.50;;;29.45;;
43118;SDS011;28729;49.838;8.650;2023-02-15T21:46:46;88.15;;;30.73;;
43118;SDS011;28729;49.838;8.650;2023-02-15T21:51:06;75.53;;;27.80;;
43118;SDS011;28729;49.838;8.650;2023-02-15T21:55:27;76.30;;;26.52;;
43118;SDS011;28729;49.838;8.650;2023-02-15T21:59:28;68.72;;;26.02;;
43118;SDS011;28729;49.838;8.650;2023-02-15T22:03:34;68.72;;;27.50;;
43118;SDS011;28729;49.838;8.650;2023-02-15T22:07:37;77.15;;;28.10;;
43118;SDS011;28729;49.838;8.650;2023-02-15T22:11:39;65.90;;;26.52;;
43118;SDS011;28729;49.838;8.650;2023-02-15T22:15:41;65.28;;;25.25;;
43118;SDS011;28729;49.838;8.650;2023-02-15T22:19:43;63.42;;;26.05;;
43118;SDS011;28729;49.838;8.650;2023-02-15T22:23:46;70.07;;;27.23;;
43118;SDS011;28729;49.838;8.650;2023-02-15T22:27:48;69.88;;;27.10;;
43118;SDS011;28729;49.838;8.650;2023-02-15T22:31:52;67.68;;;27.02;;
43118;SDS011;28729;49.838;8.650;2023-02-15T22:35:54;70.63;;;26.85;;
43118;SDS011;28729;49.838;8.650;2023-02-15T22:39:56;106.30;;;33.45;;
43118;SDS011;28729;49.838;8.650;2023-02-15T22:43:58;105.90;;;36.10;;
43118;SDS011;28729;49.838;8.650;2023-02-15T22:48:00;135.63;;;37.47;;
43118;SDS011;28729;49.838;8.650;2023-02-15T22:52:04;75.18;;;26.23;;
43118;SDS011;28729;49.838;8.650;2023-02-15T22:56:07;101.40;;;34.83;;
43118;SDS011;28729;49.838;8.650;2023-02-15T23:00:15;138.70;;;39.40;;
43118;SDS011;28729;49.838;8.650;2023-02-15T23:04:19;174.80;;;40.22;;
43118;SDS011;28729;49.838;8.650;2023-02-15T23:08:23;92.32;;;32.70;;
43118;SDS011;28729;49.838;8.650;2023-02-15T23:12:26;154.93;;;38.40;;
43118;SDS011;28729;49.838;8.650;2023-02-15T23:16:52;100.10;;;33.00;;
43118;SDS011;28729;49.838;8.650;2023-02-15T23:20:55;102.57;;;34.40;;
43118;SDS011;28729;49.838;8.650;2023-02-15T23:25:03;243.65;;;46.70;;
43118;SDS011;28729;49.838;8.650;2023-02-15T23:29:08;128.15;;;36.08;;
43118;SDS011;28729;49.838;8.650;2023-02-15T23:33:14;122.55;;;35.95;;
43118;SDS011;28729;49.838;8.650;2023-02-15T23:37:16;202.75;;;41.40;;
43118;SDS011;28729;49.838;8.650;2023-02-15T23:41:19;323.92;;;49.42;;
43118;SDS011;28729;49.838;8.650;2023-02-15T23:45:24;157.98;;;40.50;;
43118;SDS011;28729;49.838;8.650;2023-02-15T23:49:26;133.70;;;37.17;;
43118;SDS011;28729;49.838;8.650;2023-02-15T23:53:29;203.27;;;40.38;;
43118;SDS011;28729;49.838;8.650;2023-02-15T23:57:31;243.67;;;45.63;;
